Terminal Aerodrome Forecast
Issued by NWS

Home | Current Version | Previous Version | Text Only | Print | Product List | Glossary On
Versions: 1 2 3 4 5 6 7 8 9 10 11 12
515
FTUS45 KABQ 221138
TAFFMN
TAF
KFMN 221138Z 2212/2312 09008KT P6SM BKN110
     FM221800 15010KT P6SM BKN120
     FM222300 18013G23KT P6SM VCSH BKN100
     FM230200 25008KT P6SM BKN120=

USA.gov is the U.S. government's official web portal to all federal, state and local government web resources and services.